Monday, February 19, 2018, 5:11 AM EST
Back to Local

KILG, Wilmington New Castle Co

Location: New Castle, DE, United States Lat: 39.667
Local Time: 5:11 AM EST (10:11 GMT) Lon: -75.6
Time Zone: US/Eastern Elev: 78 ft

Show me the last for .
Show Decoded

2018-02-19 04:51 METAR KILG 190951Z AUTO 04003KT 7SM CLR M01/M02 A3052 RMK AO2 SLP334 T10061017 $
                 =
2018-02-19 03:51 METAR KILG 190851Z AUTO 00000KT 7SM CLR M02/M02 A3051 RMK AO2 SLP332 T10171022
                 50001 $ =
2018-02-19 02:51 METAR KILG 190751Z AUTO 00000KT 7SM CLR M01/M02 A3052 RMK AO2 SLP335 T10111017 $
                 =
2018-02-19 01:51 METAR KILG 190651Z AUTO 33003KT 6SM BR CLR M02/M03 A3052 RMK AO2 SLP335
                 T10171028 $ =
2018-02-19 00:51 METAR KILG 190551Z AUTO 00000KT 10SM CLR 00/M02 A3051 RMK AO2 SLP331 T00001022
                 10050 21011 50006 $ =
2018-02-18 23:51 METAR KILG 190451Z AUTO 04003KT 10SM CLR M01/M02 A3052 RMK AO2 SLP337 T10061022
                 400781011 $ =
2018-02-18 22:51 METAR KILG 190351Z AUTO 00000KT 10SM CLR 01/M02 A3052 RMK AO2 SLP337 T00061022 $
                 =
2018-02-18 21:51 METAR KILG 190251Z AUTO 03004KT 10SM CLR 02/M02 A3049 RMK AO2 SLP325 T00171022
                 50005 $ =
2018-02-18 20:51 METAR KILG 190151Z AUTO 00000KT 10SM CLR 02/M03 A3049 RMK AO2 SLP325 T00221028 $
                 =
2018-02-18 19:51 METAR KILG 190051Z 05004KT 10SM CLR 04/M02 A3047 RMK AO2 SLP320 T00391022 $ =
2018-02-18 18:51 METAR KILG 182351Z 03003KT 10SM CLR 05/M02 A3047 RMK AO2 SLP320 T00501022 10078
                 20039 51019 $ =
2018-02-18 17:51 METAR KILG 182251Z 35003KT 10SM CLR 05/M02 A3046 RMK AO2 SLP314 T00501022 $ =
2018-02-18 16:51 METAR KILG 182151Z 34007KT 10SM CLR 07/M02 A3044 RMK AO2 SLP308 T00671017 $ =
2018-02-18 15:51 METAR KILG 182051Z 31007KT 10SM CLR 08/M02 A3042 RMK AO2 SLP301 T00781017 53002
                 $ =
2018-02-18 14:51 METAR KILG 181951Z 32008KT 10SM CLR 07/M02 A3040 RMK AO2 SLP295 T00721017 $ =
2018-02-18 13:51 METAR KILG 181851Z 33011KT 10SM CLR 06/M02 A3040 RMK AO2 SLP293 T00611017 $ =
2018-02-18 12:51 METAR KILG 181751Z 30012KT 10SM CLR 05/M02 A3041 RMK AO2 SLP299 T00501022 10050
                 21006 51018 $ =
2018-02-18 11:51 METAR KILG 181651Z 31013KT 10SM FEW037 04/M03 A3040 RMK AO2 SLP294 T00391028 $ =
2018-02-18 10:51 METAR KILG 181551Z 31013KT 10SM CLR 04/M02 A3039 RMK AO2 SLP291 T00391022 $ =
2018-02-18 09:51 METAR KILG 181451Z 32012KT 10SM CLR 03/M01 A3036 RMK AO2 SLP281 T00331011 51051
                 $ =
2018-02-18 08:51 METAR KILG 181351Z 29010KT 10SM CLR 02/00 A3032 RMK AO2 SLP267 T00220000 $ =
2018-02-18 07:51 METAR KILG 181251Z 25006KT 6SM BR CLR 00/00 A3027 RMK AO2 SLP252 T00000000 $ =
2018-02-18 06:51 METAR KILG 181151Z 25008KT 5SM BR CLR M01/M01 A3021 RMK AO2 SLP229 70054
                 T10061011 10011 21011 51044 $ =
2018-02-18 05:51 METAR KILG 181051Z AUTO 27004KT 9SM FEW016 01/00 A3016 RMK AO2 SLP214 T00060000
                 $ =
2018-02-18 05:42 METAR KILG 181042Z AUTO 27005KT 9SM SCT014 01/00 A3016 RMK AO2 T00060000 $ =

Support USWX by starting your Amazon purchase here.